Orlando, Florida
Traffic Map
Current Weather Conditions
Orlando, Florida
Clear
Clear
17°
Feels Like: 17°
Wind Chill: 17° Ceiling: Unl
Heat Index: 17° Visibility: 10mi
Dew Point: 13° Wind: 7mph
Humidity: 78% Direction: 280° (W)
Pressure: 30.14in Gusts: 0mph
Raw Report DataKORL 310753Z AUTO 28006KT 10SM CLR 17/13 A3014 RMK AO2 SLP208 T01720133
Traffic Incident Summary
Active as of:
Severity:
Category:
InformationThere was an issue retrieving the traffic information for this location. Please try a different location or try again shortly.
Advertisements
Track Severe Weather on mobile